Buckhannon, West Virginia
Current Conditions -  °F | °C
As of 7:35 PM on Friday 24 Oct 2014 (Local Time) from KW22 Reporting Station
Clear Clear  
Wind Chill: 52°   Ceiling: Unl
Heat Index: 52°   Visibility: 10mi
Dew Point: 39°   Wind: 0mph
Humidity: 62%   Direction: NA
Pressure: 30.04"   Gusts: NA
Location:  38.99°N, 80.23°W
Report Text: KW22 242335Z AUTO 00000KT 10SM CLR 11/04 A3004 RMK AO2
Loading
Personal Weather Stations






























Interactive Weather Map
Tropical Storm Tracking
New forecast layout! Learn more

10-Day Weather Forecast

Advertisements
Track Severe Weather on mobile